createdAt,value
2019-01-31T00:00:42.958Z,1.97
2019-01-31T00:01:42.871Z,2.06
2019-01-31T00:02:42.783Z,1.95
2019-01-31T00:03:42.698Z,2.02
2019-01-31T00:04:42.609Z,2.00
2019-01-31T00:05:42.517Z,1.94
2019-01-31T00:06:42.430Z,1.91
2019-01-31T00:07:42.348Z,1.97
2019-01-31T00:08:46.116Z,1.91
2019-01-31T00:09:42.167Z,1.88
2019-01-31T00:10:42.082Z,1.89
2019-01-31T00:11:41.991Z,1.89
2019-01-31T00:12:41.908Z,1.91
2019-01-31T00:13:41.820Z,1.95
2019-01-31T00:14:41.724Z,1.89
2019-01-31T00:15:41.634Z,1.88
2019-01-31T00:16:41.546Z,1.87
2019-01-31T00:17:41.499Z,1.85
2019-01-31T00:18:41.371Z,1.92
2019-01-31T00:19:41.282Z,1.92
2019-01-31T00:20:41.193Z,1.94
2019-01-31T00:21:41.104Z,1.89
2019-01-31T00:22:41.017Z,1.94
2019-01-31T00:23:40.929Z,1.95
2019-01-31T00:24:40.839Z,1.99
2019-01-31T00:25:40.752Z,1.87
2019-01-31T00:26:40.665Z,1.94
2019-01-31T00:27:40.573Z,1.89
2019-01-31T00:28:40.492Z,1.95
2019-01-31T00:29:40.397Z,1.97
2019-01-31T00:30:40.356Z,1.95
2019-01-31T00:31:40.221Z,1.84
2019-01-31T00:32:40.136Z,1.97
2019-01-31T00:33:40.041Z,1.95
2019-01-31T00:34:39.959Z,1.92
2019-01-31T00:35:39.866Z,1.92
2019-01-31T00:36:39.775Z,1.87
2019-01-31T00:37:39.695Z,1.87
2019-01-31T00:38:39.602Z,1.80
2019-01-31T00:39:39.511Z,1.88
2019-01-31T00:40:39.430Z,1.87
2019-01-31T00:41:39.349Z,1.74
2019-01-31T00:42:39.263Z,1.77
2019-01-31T00:43:39.168Z,1.81
2019-01-31T00:44:39.071Z,1.73
2019-01-31T00:45:39.028Z,1.77
2019-01-31T00:46:38.905Z,1.74
2019-01-31T00:47:38.812Z,1.73
2019-01-31T00:48:38.720Z,1.66
2019-01-31T00:49:38.636Z,1.73
2019-01-31T00:50:38.539Z,1.73
2019-01-31T00:51:38.448Z,1.76
2019-01-31T00:52:38.360Z,1.74
2019-01-31T00:53:38.276Z,1.67
2019-01-31T00:54:38.182Z,1.66
2019-01-31T00:55:38.101Z,1.68
2019-01-31T00:56:38.007Z,1.74
2019-01-31T00:57:37.921Z,1.70
2019-01-31T00:58:37.829Z,1.71
2019-01-31T00:59:37.753Z,1.67
2019-01-31T01:00:37.653Z,1.71
2019-01-31T01:01:37.562Z,1.71
2019-01-31T01:02:37.474Z,1.74
2019-01-31T01:03:37.391Z,1.70
2019-01-31T01:04:37.297Z,1.62
2019-01-31T01:05:37.206Z,1.71
2019-01-31T01:06:37.121Z,1.58
2019-01-31T01:07:37.027Z,1.53
2019-01-31T01:08:36.937Z,1.53
2019-01-31T01:09:36.850Z,1.58
2019-01-31T01:10:36.766Z,1.49
2019-01-31T01:11:36.682Z,1.58
2019-01-31T01:12:36.591Z,1.50
2019-01-31T01:13:36.497Z,1.56
2019-01-31T01:14:36.409Z,1.56
2019-01-31T01:15:36.320Z,1.49
2019-01-31T01:16:36.226Z,1.49
2019-01-31T01:17:36.138Z,1.56
2019-01-31T01:18:36.052Z,1.53
2019-01-31T01:19:35.963Z,1.52
2019-01-31T01:20:35.869Z,1.49
2019-01-31T01:21:35.780Z,1.53
2019-01-31T01:22:35.692Z,1.56
2019-01-31T01:23:35.604Z,1.53
2019-01-31T01:24:35.518Z,1.50
2019-01-31T01:25:35.428Z,1.49
2019-01-31T01:26:35.339Z,1.48
2019-01-31T01:27:35.249Z,1.44
2019-01-31T01:28:35.159Z,1.52
2019-01-31T01:29:35.072Z,1.52
2019-01-31T01:30:34.980Z,1.50
2019-01-31T01:31:34.891Z,1.55
2019-01-31T01:32:34.801Z,1.37
2019-01-31T01:33:34.715Z,1.34
2019-01-31T01:34:34.627Z,1.38
2019-01-31T01:35:34.533Z,1.40
2019-01-31T01:36:34.449Z,1.38
2019-01-31T01:37:34.358Z,1.42
2019-01-31T01:38:34.271Z,1.44
2019-01-31T01:39:34.184Z,1.34
2019-01-31T01:40:34.088Z,1.38
2019-01-31T01:41:34.000Z,1.35
2019-01-31T01:42:33.915Z,1.42
2019-01-31T01:43:33.830Z,1.38
2019-01-31T01:44:33.731Z,1.37
2019-01-31T01:45:33.650Z,1.30
2019-01-31T01:46:33.559Z,1.26
2019-01-31T01:47:33.464Z,1.26
2019-01-31T01:48:33.381Z,1.30
2019-01-31T01:49:33.291Z,1.24
2019-01-31T01:50:33.204Z,1.28
2019-01-31T01:51:33.109Z,1.23
2019-01-31T01:52:33.018Z,1.22
2019-01-31T01:53:32.929Z,1.26
2019-01-31T01:54:32.849Z,1.24
2019-01-31T01:55:32.752Z,1.19
2019-01-31T01:56:32.669Z,1.22
2019-01-31T01:57:32.573Z,1.34
2019-01-31T01:58:32.484Z,1.23
2019-01-31T01:59:32.399Z,1.26
2019-01-31T02:00:32.318Z,1.30
2019-01-31T02:01:32.217Z,1.23
2019-01-31T02:02:32.130Z,1.24
2019-01-31T02:03:32.045Z,1.22
2019-01-31T02:04:31.960Z,1.20
2019-01-31T02:05:31.866Z,1.13
2019-01-31T02:06:31.770Z,1.13
2019-01-31T02:07:31.681Z,1.13
2019-01-31T02:08:31.592Z,1.10
2019-01-31T02:09:31.506Z,1.06
2019-01-31T02:10:31.417Z,1.08
2019-01-31T02:11:31.324Z,1.06
2019-01-31T02:12:31.234Z,1.06
2019-01-31T02:13:31.149Z,1.05
2019-01-31T02:14:31.059Z,1.04
2019-01-31T02:15:30.969Z,1.04
2019-01-31T02:16:30.883Z,1.12
2019-01-31T02:17:30.800Z,0.96
2019-01-31T02:18:30.698Z,1.02
2019-01-31T02:19:30.618Z,1.06
2019-01-31T02:20:30.529Z,1.04
2019-01-31T02:21:30.432Z,1.02
2019-01-31T02:22:30.347Z,0.98
2019-01-31T02:23:30.258Z,0.96
2019-01-31T02:24:30.164Z,1.06
2019-01-31T02:25:30.074Z,0.99
2019-01-31T02:26:29.985Z,0.98
2019-01-31T02:27:29.902Z,0.98
2019-01-31T02:28:29.811Z,0.92
2019-01-31T02:29:29.721Z,0.86
2019-01-31T02:30:29.629Z,0.94
2019-01-31T02:31:29.543Z,0.91
2019-01-31T02:32:29.449Z,0.84
2019-01-31T02:33:29.363Z,0.86
2019-01-31T02:34:29.276Z,0.88
2019-01-31T02:35:29.182Z,0.88
2019-01-31T02:36:29.092Z,0.94
2019-01-31T02:37:29.001Z,0.80
2019-01-31T02:38:28.911Z,0.91
2019-01-31T02:39:28.830Z,0.86
2019-01-31T02:40:28.737Z,0.88
2019-01-31T02:41:28.645Z,0.86
2019-01-31T02:42:28.557Z,0.91
2019-01-31T02:43:28.471Z,0.95
2019-01-31T02:44:28.396Z,0.95
2019-01-31T02:45:28.286Z,0.87
2019-01-31T02:46:28.200Z,0.80
2019-01-31T02:47:28.107Z,0.76
2019-01-31T02:48:28.020Z,0.77
2019-01-31T02:49:27.930Z,0.77
2019-01-31T02:50:27.842Z,0.83
2019-01-31T02:51:27.754Z,0.78
2019-01-31T02:52:27.662Z,0.81
2019-01-31T02:53:27.570Z,0.78
2019-01-31T02:54:27.479Z,0.68
2019-01-31T02:55:27.392Z,0.69
2019-01-31T02:56:27.302Z,0.83
2019-01-31T02:57:27.218Z,0.68
2019-01-31T02:58:27.123Z,0.66
2019-01-31T02:59:27.034Z,0.66
2019-01-31T03:00:26.948Z,0.76
2019-01-31T03:01:26.858Z,0.80
2019-01-31T03:02:26.763Z,0.68
2019-01-31T03:03:26.672Z,0.77
2019-01-31T03:04:26.588Z,0.80
2019-01-31T03:05:26.495Z,0.68
2019-01-31T03:06:26.405Z,0.66
2019-01-31T03:07:26.319Z,0.65
2019-01-31T03:08:26.226Z,0.65
2019-01-31T03:09:26.138Z,0.63
2019-01-31T03:10:26.049Z,0.65
2019-01-31T03:11:25.960Z,0.73
2019-01-31T03:12:25.868Z,0.68
2019-01-31T03:13:25.780Z,0.63
2019-01-31T03:14:25.687Z,0.55
2019-01-31T03:15:25.597Z,0.41
2019-01-31T03:16:25.511Z,0.36
2019-01-31T03:17:25.417Z,0.32
2019-01-31T03:18:25.330Z,0.28
2019-01-31T03:19:25.239Z,0.39
2019-01-31T03:20:25.154Z,0.34
2019-01-31T03:21:25.060Z,0.34
2019-01-31T03:22:24.975Z,0.34
2019-01-31T03:23:24.987Z,0.31
2019-01-31T03:24:24.812Z,0.28
2019-01-31T03:25:24.702Z,0.19
2019-01-31T03:26:24.609Z,0.29
2019-01-31T03:27:24.522Z,0.25
2019-01-31T03:28:24.426Z,0.23
2019-01-31T03:29:24.340Z,0.21
2019-01-31T03:30:25.071Z,0.28
2019-01-31T03:31:24.159Z,0.22
2019-01-31T03:32:24.074Z,0.19
2019-01-31T03:33:23.981Z,0.10
2019-01-31T03:34:23.891Z,0.16
2019-01-31T03:35:23.796Z,0.21
2019-01-31T03:36:23.709Z,0.25
2019-01-31T03:37:23.617Z,0.25
2019-01-31T03:38:23.525Z,0.23
2019-01-31T03:39:23.437Z,0.25
2019-01-31T03:40:23.350Z,0.21
2019-01-31T03:41:23.255Z,0.21
2019-01-31T03:42:23.170Z,0.21
2019-01-31T03:43:23.078Z,0.23
2019-01-31T03:44:22.982Z,0.29
2019-01-31T03:45:22.894Z,0.26
2019-01-31T03:46:22.814Z,0.26
2019-01-31T03:47:22.714Z,0.25
2019-01-31T03:48:22.626Z,0.25
2019-01-31T03:49:22.537Z,0.23
2019-01-31T03:50:22.449Z,0.25
2019-01-31T03:51:22.358Z,0.11
2019-01-31T03:52:22.270Z,0.12
2019-01-31T03:53:22.176Z,0.19
2019-01-31T03:54:22.142Z,0.16
2019-01-31T03:55:21.992Z,0.15
2019-01-31T03:56:21.903Z,0.26
2019-01-31T03:57:21.813Z,0.22
2019-01-31T03:58:21.726Z,0.08
2019-01-31T03:59:21.634Z,0.15
2019-01-31T04:00:21.541Z,0.12
2019-01-31T04:01:21.459Z,0.12
2019-01-31T04:02:21.365Z,0.05
2019-01-31T04:03:21.272Z,0.05
2019-01-31T04:04:21.189Z,0.08
2019-01-31T04:05:21.089Z,0.07
2019-01-31T04:06:21.006Z,0.11
2019-01-31T04:07:20.909Z,0.07
2019-01-31T04:08:20.825Z,0.11
2019-01-31T04:09:20.729Z,0.10
2019-01-31T04:10:20.642Z,0.11
2019-01-31T04:11:20.549Z,0.00
2019-01-31T04:12:20.457Z,-0.03
2019-01-31T04:13:20.369Z,-0.10
2019-01-31T04:14:20.277Z,-0.06
2019-01-31T04:15:20.194Z,-0.07
2019-01-31T04:16:20.152Z,-0.03
2019-01-31T04:17:20.005Z,0.03
2019-01-31T04:18:19.933Z,0.01
2019-01-31T04:19:19.829Z,-0.08
2019-01-31T04:20:19.747Z,-0.02
2019-01-31T04:21:19.651Z,0.03
2019-01-31T04:22:19.561Z,0.00
2019-01-31T04:23:19.481Z,-0.03
2019-01-31T04:24:19.383Z,-0.06
2019-01-31T04:25:19.286Z,-0.10
2019-01-31T04:26:19.192Z,-0.13
2019-01-31T04:27:19.114Z,-0.02
2019-01-31T04:28:19.010Z,-0.08
2019-01-31T04:29:18.928Z,-0.07
2019-01-31T04:30:18.835Z,-0.10
2019-01-31T04:31:18.738Z,-0.06
2019-01-31T04:32:18.647Z,-0.11
2019-01-31T04:33:18.559Z,-0.10
2019-01-31T04:34:18.473Z,-0.17
2019-01-31T04:35:18.379Z,-0.07
2019-01-31T04:36:18.288Z,-0.08
2019-01-31T04:37:18.274Z,-0.11
2019-01-31T04:38:19.865Z,-0.17
2019-01-31T04:39:18.015Z,-0.08
2019-01-31T04:40:17.938Z,-0.07
2019-01-31T04:41:17.836Z,-0.06
2019-01-31T04:42:17.748Z,-0.14
2019-01-31T04:43:17.657Z,-0.03
2019-01-31T04:44:17.564Z,-0.11
2019-01-31T04:45:17.472Z,-0.11
2019-01-31T04:46:17.389Z,-0.10
2019-01-31T04:47:17.297Z,-0.21
2019-01-31T04:48:17.208Z,-0.25
2019-01-31T04:49:17.111Z,-0.21
2019-01-31T04:50:17.026Z,-0.20
2019-01-31T04:51:16.930Z,-0.21
2019-01-31T04:52:16.840Z,-0.18
2019-01-31T04:53:16.752Z,-0.39
2019-01-31T04:54:16.662Z,-0.32
2019-01-31T04:55:16.567Z,-0.49
2019-01-31T04:56:16.477Z,-0.28
2019-01-31T04:57:16.388Z,-0.41
2019-01-31T04:58:16.298Z,-0.39
2019-01-31T04:59:17.516Z,-0.39
2019-01-31T05:00:16.117Z,-0.39
2019-01-31T05:01:16.025Z,-0.32
2019-01-31T05:02:15.938Z,-0.38
2019-01-31T05:03:15.845Z,-0.35
2019-01-31T05:04:15.755Z,-0.38
2019-01-31T05:05:15.668Z,-0.41
2019-01-31T05:06:15.576Z,-0.47
2019-01-31T05:07:15.488Z,-0.32
2019-01-31T05:08:15.399Z,-0.35
2019-01-31T05:09:15.306Z,-0.23
2019-01-31T05:10:15.220Z,-0.28
2019-01-31T05:11:15.126Z,-0.29
2019-01-31T05:12:15.029Z,-0.18
2019-01-31T05:13:14.943Z,-0.20
2019-01-31T05:14:14.849Z,-0.23
2019-01-31T05:15:14.766Z,-0.18
2019-01-31T05:16:14.667Z,-0.18
2019-01-31T05:17:14.577Z,-0.21
2019-01-31T05:18:14.486Z,-0.21
2019-01-31T05:19:14.394Z,-0.25
2019-01-31T05:20:14.304Z,-0.21
2019-01-31T05:21:14.215Z,-0.21
2019-01-31T05:22:14.123Z,-0.23
2019-01-31T05:23:14.037Z,-0.15
2019-01-31T05:24:13.943Z,-0.20
2019-01-31T05:25:13.855Z,-0.10
2019-01-31T05:26:13.768Z,-0.11
2019-01-31T05:27:13.678Z,-0.10
2019-01-31T05:28:13.581Z,-0.13
2019-01-31T05:29:13.494Z,-0.13
2019-01-31T05:30:13.400Z,0.05
2019-01-31T05:31:13.311Z,-0.02
2019-01-31T05:32:13.219Z,-0.06
2019-01-31T05:33:13.132Z,-0.10
2019-01-31T05:34:13.039Z,-0.02
2019-01-31T05:35:12.949Z,0.03
2019-01-31T05:36:12.858Z,0.00
2019-01-31T05:37:12.769Z,-0.03
2019-01-31T05:38:12.680Z,0.03
2019-01-31T05:39:12.588Z,0.07
2019-01-31T05:40:12.499Z,0.03
2019-01-31T05:41:12.405Z,0.01
2019-01-31T05:42:12.317Z,-0.02
2019-01-31T05:43:12.225Z,-0.02
2019-01-31T05:44:12.137Z,0.00
2019-01-31T05:45:12.079Z,-0.07
2019-01-31T05:46:11.964Z,-0.07
2019-01-31T05:47:11.863Z,0.00
2019-01-31T05:48:11.773Z,0.01
2019-01-31T05:49:11.684Z,0.05
2019-01-31T05:50:11.598Z,0.07
2019-01-31T05:51:11.537Z,0.03
2019-01-31T05:52:11.413Z,-0.02
2019-01-31T05:53:11.323Z,0.01
2019-01-31T05:54:11.234Z,-0.07
2019-01-31T05:55:11.147Z,-0.06
2019-01-31T05:56:11.055Z,-0.02
2019-01-31T05:57:10.961Z,-0.10
2019-01-31T05:58:10.875Z,-0.03
2019-01-31T05:59:10.785Z,-0.08
2019-01-31T06:00:10.713Z,-0.06
2019-01-31T06:01:10.606Z,0.00
2019-01-31T06:02:10.513Z,-0.08
2019-01-31T06:03:10.423Z,0.00
2019-01-31T06:04:10.331Z,-0.03
2019-01-31T06:05:10.239Z,-0.03
2019-01-31T06:06:10.158Z,-0.03
2019-01-31T06:07:11.159Z,-0.08
2019-01-31T06:08:09.973Z,-0.13
2019-01-31T06:09:09.907Z,-0.18
2019-01-31T06:10:09.802Z,-0.14
2019-01-31T06:11:09.702Z,-0.11
2019-01-31T06:12:09.611Z,-0.02
2019-01-31T06:13:09.516Z,-0.13
2019-01-31T06:14:09.426Z,-0.06
2019-01-31T06:15:09.346Z,-0.02
2019-01-31T06:16:09.344Z,-0.11
2019-01-31T06:17:09.156Z,-0.02
2019-01-31T06:18:09.068Z,-0.10
2019-01-31T06:19:08.987Z,-0.11
2019-01-31T06:20:08.892Z,-0.14
2019-01-31T06:21:08.795Z,-0.15
2019-01-31T06:22:08.705Z,-0.25
2019-01-31T06:23:08.620Z,-0.21
2019-01-31T06:24:08.532Z,-0.36
2019-01-31T06:25:08.446Z,-0.29
2019-01-31T06:26:08.344Z,-0.39
2019-01-31T06:27:08.255Z,-0.43
2019-01-31T06:28:08.163Z,-0.43
2019-01-31T06:29:08.079Z,-0.59
2019-01-31T06:30:07.989Z,-0.72
2019-01-31T06:31:07.894Z,-0.82
2019-01-31T06:32:07.803Z,-0.86
2019-01-31T06:33:07.711Z,-0.78
2019-01-31T06:34:07.623Z,-0.99
2019-01-31T06:35:07.537Z,-0.91
2019-01-31T06:36:07.441Z,-0.93
2019-01-31T06:37:07.353Z,-0.93
2019-01-31T06:38:07.261Z,-0.90
2019-01-31T06:39:07.167Z,-0.96
2019-01-31T06:40:07.077Z,-0.85
2019-01-31T06:41:17.996Z,-0.86
2019-01-31T06:42:06.895Z,-0.91
2019-01-31T06:43:06.812Z,-0.89
2019-01-31T06:44:06.718Z,-0.86
2019-01-31T06:45:06.623Z,-0.85
2019-01-31T06:46:06.535Z,-0.86
2019-01-31T06:47:06.440Z,-0.89
2019-01-31T06:48:06.348Z,-0.97
2019-01-31T06:49:06.270Z,-0.96
2019-01-31T06:50:06.172Z,-1.12
2019-01-31T06:51:06.077Z,-1.02
2019-01-31T06:52:05.984Z,-1.11
2019-01-31T06:53:05.894Z,-1.12
2019-01-31T06:54:07.756Z,-1.11
2019-01-31T06:55:05.718Z,-1.14
2019-01-31T06:56:05.626Z,-1.11
2019-01-31T06:57:05.532Z,-1.14
2019-01-31T06:58:05.444Z,-1.09
2019-01-31T06:59:05.348Z,-1.07
2019-01-31T07:00:05.256Z,-1.12
2019-01-31T07:01:05.167Z,-0.94
2019-01-31T07:02:05.074Z,-0.90
2019-01-31T07:03:04.981Z,-0.94
2019-01-31T07:04:04.892Z,-0.83
2019-01-31T07:05:04.801Z,-0.91
2019-01-31T07:06:04.832Z,-0.89
2019-01-31T07:07:04.659Z,-0.89
2019-01-31T07:08:04.929Z,-0.82
2019-01-31T07:09:04.442Z,-0.86
2019-01-31T07:10:04.347Z,-0.86
2019-01-31T07:11:04.258Z,-0.86
2019-01-31T07:12:04.163Z,-0.89
2019-01-31T07:13:04.071Z,-0.90
2019-01-31T07:14:03.985Z,-1.05
2019-01-31T07:15:03.893Z,-0.96
2019-01-31T07:16:03.816Z,-0.94
2019-01-31T07:17:03.712Z,-0.86
2019-01-31T07:18:03.618Z,-0.83
2019-01-31T07:19:03.529Z,-0.85
2019-01-31T07:20:03.441Z,-0.85
2019-01-31T07:21:03.347Z,-0.85
2019-01-31T07:22:03.252Z,-0.93
2019-01-31T07:23:03.164Z,-0.91
2019-01-31T07:24:03.076Z,-0.85
2019-01-31T07:25:02.977Z,-0.91
2019-01-31T07:26:02.887Z,-0.82
2019-01-31T07:27:02.804Z,-0.85
2019-01-31T07:28:02.704Z,-0.80
2019-01-31T07:29:02.613Z,-0.82
2019-01-31T07:30:02.534Z,-0.77
2019-01-31T07:31:02.431Z,-0.85
2019-01-31T07:32:03.740Z,-0.90
2019-01-31T07:33:02.250Z,-0.82
2019-01-31T07:34:02.171Z,-0.83
2019-01-31T07:35:02.076Z,-0.89
2019-01-31T07:36:01.974Z,-0.78
2019-01-31T07:37:01.886Z,-0.86
2019-01-31T07:38:01.810Z,-0.91
2019-01-31T07:39:01.708Z,-0.83
2019-01-31T07:40:01.625Z,-0.91
2019-01-31T07:41:01.520Z,-0.77
2019-01-31T07:42:01.431Z,-0.74
2019-01-31T07:43:01.343Z,-0.75
2019-01-31T07:44:01.250Z,-0.80
2019-01-31T07:45:01.159Z,-0.75
2019-01-31T07:46:01.066Z,-0.82
2019-01-31T07:47:00.980Z,-0.85
2019-01-31T07:48:00.889Z,-0.68
2019-01-31T07:49:00.796Z,-0.65
2019-01-31T07:50:00.711Z,-0.71
2019-01-31T07:51:00.615Z,-0.68
2019-01-31T07:52:00.518Z,-0.68
2019-01-31T07:53:00.431Z,-0.65
2019-01-31T07:54:00.345Z,-0.65
2019-01-31T07:55:01.983Z,-0.70
2019-01-31T07:56:00.160Z,-0.67
2019-01-31T07:57:00.066Z,-0.56
2019-01-31T07:57:59.983Z,-0.53
2019-01-31T07:58:59.890Z,-0.54
2019-01-31T07:59:59.797Z,-0.46
2019-01-31T08:00:59.703Z,-0.57
2019-01-31T08:01:59.612Z,-0.53
2019-01-31T08:02:59.526Z,-0.46
2019-01-31T08:04:02.622Z,-0.44
2019-01-31T08:04:59.342Z,-0.43
2019-01-31T08:05:59.371Z,-0.36
2019-01-31T08:06:59.165Z,-0.41
2019-01-31T08:07:59.067Z,-0.35
2019-01-31T08:08:58.977Z,-0.23
2019-01-31T08:09:58.890Z,-0.23
2019-01-31T08:10:58.800Z,-0.21
2019-01-31T08:11:58.705Z,-0.17
2019-01-31T08:12:58.614Z,-0.21
2019-01-31T08:13:58.526Z,-0.13
2019-01-31T08:14:58.436Z,-0.06
2019-01-31T08:15:58.349Z,-0.18
2019-01-31T08:16:58.252Z,-0.14
2019-01-31T08:17:58.171Z,-0.03
2019-01-31T08:18:58.073Z,0.05
2019-01-31T08:19:57.982Z,0.04
2019-01-31T08:20:57.892Z,0.01
2019-01-31T08:21:57.802Z,0.04
2019-01-31T08:23:00.084Z,0.00
2019-01-31T08:23:57.621Z,0.10
2019-01-31T08:24:57.559Z,0.10
2019-01-31T08:25:57.526Z,0.11
2019-01-31T08:26:57.413Z,0.16
2019-01-31T08:27:57.265Z,0.12
2019-01-31T08:28:57.172Z,0.12
2019-01-31T08:29:57.090Z,0.16
2019-01-31T08:30:57.046Z,0.12
2019-01-31T08:31:56.904Z,0.21
2019-01-31T08:32:56.855Z,0.21
2019-01-31T08:33:56.721Z,0.26
2019-01-31T08:34:56.631Z,0.22
2019-01-31T08:35:56.545Z,0.26
2019-01-31T08:36:56.451Z,0.31
2019-01-31T08:37:56.361Z,0.28
2019-01-31T08:38:56.273Z,0.25
2019-01-31T08:39:56.248Z,0.28
2019-01-31T08:40:56.127Z,0.31
2019-01-31T08:42:03.525Z,0.37
2019-01-31T08:42:55.921Z,0.31
2019-01-31T08:43:55.821Z,0.28
2019-01-31T08:44:55.729Z,0.34
2019-01-31T08:45:55.642Z,0.37
2019-01-31T08:46:55.556Z,0.49
2019-01-31T08:47:55.466Z,0.46
2019-01-31T08:48:55.374Z,0.47
2019-01-31T08:49:55.288Z,0.52
2019-01-31T08:50:55.240Z,0.49
2019-01-31T08:51:55.130Z,0.58
2019-01-31T08:52:55.062Z,0.62
2019-01-31T08:53:54.925Z,0.68
2019-01-31T08:54:54.839Z,0.65
2019-01-31T08:55:54.794Z,0.74
2019-01-31T08:56:54.654Z,0.81
2019-01-31T08:57:54.576Z,0.77
2019-01-31T08:58:54.484Z,0.78
2019-01-31T08:59:54.385Z,0.88
2019-01-31T09:00:54.296Z,0.94
2019-01-31T09:01:54.272Z,0.96
2019-01-31T09:02:54.123Z,0.95
2019-01-31T09:03:54.028Z,1.01
2019-01-31T09:04:53.939Z,0.99
2019-01-31T09:05:53.858Z,1.10
2019-01-31T09:06:53.767Z,1.13
2019-01-31T09:07:53.673Z,1.20
2019-01-31T09:08:53.583Z,1.22
2019-01-31T09:09:53.497Z,1.24
2019-01-31T09:10:53.404Z,1.31
2019-01-31T09:11:53.418Z,1.24
2019-01-31T09:12:53.298Z,1.32
2019-01-31T09:13:53.203Z,1.40
2019-01-31T09:14:53.095Z,1.40
2019-01-31T09:15:53.022Z,1.42
2019-01-31T09:16:52.953Z,1.49
2019-01-31T09:17:52.851Z,1.50
2019-01-31T09:18:52.703Z,1.50
2019-01-31T09:19:52.675Z,1.49
2019-01-31T09:20:52.562Z,1.50
2019-01-31T09:21:52.496Z,1.53
2019-01-31T09:22:52.346Z,1.52
2019-01-31T09:23:52.308Z,1.58
2019-01-31T09:24:52.216Z,1.52
2019-01-31T09:25:52.147Z,1.56
2019-01-31T09:26:52.023Z,1.58
2019-01-31T09:27:51.979Z,1.60
2019-01-31T09:28:51.894Z,1.62
2019-01-31T09:29:54.190Z,1.59
2019-01-31T09:30:51.699Z,1.59
2019-01-31T09:31:51.608Z,1.63
2019-01-31T09:32:51.520Z,1.67
2019-01-31T09:33:51.447Z,1.71
2019-01-31T09:34:51.352Z,1.73
2019-01-31T09:35:51.252Z,1.67
2019-01-31T09:36:51.178Z,1.76
2019-01-31T09:37:51.051Z,1.67
2019-01-31T09:38:50.991Z,1.68
2019-01-31T09:39:50.887Z,1.77
2019-01-31T09:40:50.809Z,1.68
2019-01-31T09:41:50.735Z,1.66
2019-01-31T09:42:50.619Z,1.74
2019-01-31T09:43:50.528Z,1.77
2019-01-31T09:44:50.462Z,1.70
2019-01-31T09:45:50.393Z,1.67
2019-01-31T09:46:50.283Z,1.74
2019-01-31T09:47:50.214Z,1.74
2019-01-31T09:48:50.091Z,1.76
2019-01-31T09:49:50.013Z,1.74
2019-01-31T09:50:49.915Z,1.77
2019-01-31T09:51:49.807Z,1.77
2019-01-31T09:52:49.753Z,1.77
2019-01-31T09:53:49.634Z,1.81
2019-01-31T09:54:49.576Z,1.85
2019-01-31T09:55:49.487Z,1.89
2019-01-31T09:56:49.414Z,1.89
2019-01-31T09:57:49.326Z,1.91
2019-01-31T09:58:49.195Z,1.94
2019-01-31T09:59:49.157Z,1.94
2019-01-31T10:00:49.063Z,2.07
2019-01-31T10:01:48.947Z,2.13
2019-01-31T10:02:48.873Z,2.22
2019-01-31T10:03:48.729Z,2.18
2019-01-31T10:04:48.708Z,2.10
2019-01-31T10:05:48.613Z,2.24
2019-01-31T10:06:48.501Z,2.22
2019-01-31T10:07:48.413Z,2.22
2019-01-31T10:08:48.366Z,2.25
2019-01-31T10:09:48.259Z,2.31
2019-01-31T10:10:48.205Z,2.28
2019-01-31T10:11:48.098Z,2.46
2019-01-31T10:12:48.086Z,2.35
2019-01-31T10:13:47.952Z,2.39
2019-01-31T10:14:47.867Z,2.43
2019-01-31T10:15:47.742Z,2.43
2019-01-31T10:16:47.720Z,2.35
2019-01-31T10:17:47.560Z,2.47
2019-01-31T10:18:47.534Z,2.42
2019-01-31T10:19:47.555Z,2.49
2019-01-31T10:20:47.320Z,2.39
2019-01-31T10:21:47.216Z,2.46
2019-01-31T10:22:47.150Z,2.38
2019-01-31T10:23:47.041Z,2.38
2019-01-31T10:24:46.939Z,2.43
2019-01-31T10:25:46.837Z,2.42
2019-01-31T10:26:46.745Z,2.50
2019-01-31T10:27:46.679Z,2.53
2019-01-31T10:28:46.612Z,2.43
2019-01-31T10:29:46.516Z,2.50
2019-01-31T10:30:46.420Z,2.42
2019-01-31T10:31:46.344Z,2.50
2019-01-31T10:32:46.246Z,2.47
2019-01-31T10:33:46.164Z,2.60
2019-01-31T10:34:46.084Z,2.53
2019-01-31T10:35:46.000Z,2.56
2019-01-31T10:36:45.907Z,2.57
2019-01-31T10:37:45.800Z,2.71
2019-01-31T10:38:45.725Z,2.68
2019-01-31T10:39:45.641Z,2.54
2019-01-31T10:40:45.559Z,2.68
2019-01-31T10:41:45.472Z,2.77
2019-01-31T10:42:50.561Z,2.92
2019-01-31T10:43:45.292Z,2.98
2019-01-31T10:44:45.186Z,3.01
2019-01-31T10:45:45.098Z,3.26
2019-01-31T10:46:44.991Z,3.26
2019-01-31T10:47:44.967Z,3.48
2019-01-31T10:48:44.866Z,3.99
2019-01-31T10:49:44.769Z,4.19
2019-01-31T10:50:44.713Z,4.59
2019-01-31T10:51:44.597Z,4.84
2019-01-31T10:52:44.511Z,4.84
2019-01-31T10:53:44.444Z,4.84
2019-01-31T10:54:44.343Z,4.93
2019-01-31T10:55:44.265Z,5.15
2019-01-31T10:56:44.513Z,5.07
2019-01-31T10:57:44.104Z,5.32
2019-01-31T10:58:43.986Z,5.53
2019-01-31T10:59:43.897Z,5.47
2019-01-31T11:00:43.773Z,5.20
2019-01-31T11:01:43.750Z,5.04
2019-01-31T11:02:43.684Z,4.86
2019-01-31T11:03:43.588Z,4.73
2019-01-31T11:04:43.501Z,4.60
2019-01-31T11:05:43.467Z,4.70
2019-01-31T11:06:43.331Z,4.68
2019-01-31T11:07:43.250Z,4.84
2019-01-31T11:08:43.141Z,4.92
2019-01-31T11:09:43.072Z,5.21
2019-01-31T11:10:43.003Z,5.53
2019-01-31T11:11:42.922Z,5.75
2019-01-31T11:12:42.828Z,5.91
2019-01-31T11:13:42.743Z,5.97
2019-01-31T11:14:42.674Z,5.76
2019-01-31T11:15:42.546Z,5.38
2019-01-31T11:16:42.505Z,5.14
2019-01-31T11:17:42.408Z,5.05
2019-01-31T11:18:42.318Z,5.05
2019-01-31T11:19:42.244Z,5.17
2019-01-31T11:20:42.163Z,5.17
2019-01-31T11:21:42.053Z,5.18
2019-01-31T11:22:41.975Z,5.11
2019-01-31T11:23:41.909Z,5.21
2019-01-31T11:24:41.804Z,5.26
2019-01-31T11:25:41.752Z,5.59
2019-01-31T11:26:41.648Z,5.73
2019-01-31T11:27:41.595Z,5.72
2019-01-31T11:28:41.482Z,5.68
2019-01-31T11:29:41.431Z,5.68
2019-01-31T11:30:41.327Z,5.62
2019-01-31T11:31:41.246Z,5.62
2019-01-31T11:32:41.179Z,5.64
2019-01-31T11:33:41.059Z,5.65
2019-01-31T11:34:40.988Z,5.71
2019-01-31T11:35:40.890Z,5.76
2019-01-31T11:36:40.810Z,5.91
2019-01-31T11:37:40.755Z,5.93
2019-01-31T11:38:40.690Z,5.75
2019-01-31T11:39:40.608Z,5.76
2019-01-31T11:40:40.591Z,5.59
2019-01-31T11:41:40.392Z,5.54
2019-01-31T11:42:40.294Z,5.50
2019-01-31T11:43:40.213Z,5.32
2019-01-31T11:44:40.134Z,5.29
2019-01-31T11:45:40.050Z,5.20
2019-01-31T11:46:39.970Z,5.14
2019-01-31T11:47:39.885Z,5.15
2019-01-31T11:48:39.804Z,5.12
2019-01-31T11:49:39.727Z,5.25
2019-01-31T11:50:39.646Z,5.28
2019-01-31T11:51:39.564Z,5.18
2019-01-31T11:52:39.481Z,5.30
2019-01-31T11:53:39.398Z,5.28
2019-01-31T11:54:39.312Z,5.32
2019-01-31T11:55:39.349Z,5.35
2019-01-31T11:56:39.155Z,5.48
2019-01-31T11:57:39.121Z,5.54
2019-01-31T11:58:38.986Z,5.66
2019-01-31T11:59:38.902Z,5.82
2019-01-31T12:00:38.819Z,5.91
2019-01-31T12:01:38.735Z,5.94
2019-01-31T12:02:38.654Z,6.07
2019-01-31T12:03:38.570Z,6.14
2019-01-31T12:04:38.492Z,6.22
2019-01-31T12:05:38.408Z,6.35
2019-01-31T12:06:38.433Z,6.52
2019-01-31T12:07:38.246Z,6.41
2019-01-31T12:08:38.161Z,6.56
2019-01-31T12:09:38.078Z,6.52
2019-01-31T12:10:38.003Z,6.59
2019-01-31T12:11:37.914Z,6.62
2019-01-31T12:12:37.894Z,6.70
2019-01-31T12:13:37.751Z,6.66
2019-01-31T12:14:37.750Z,6.66
2019-01-31T12:15:37.609Z,6.81
2019-01-31T12:16:37.516Z,6.75
2019-01-31T12:17:37.431Z,6.79
2019-01-31T12:18:37.371Z,6.85
2019-01-31T12:19:37.270Z,6.92
2019-01-31T12:20:37.185Z,7.00
2019-01-31T12:21:37.129Z,7.18
2019-01-31T12:22:37.027Z,7.23
2019-01-31T12:23:36.944Z,7.31
2019-01-31T12:24:36.866Z,7.32
2019-01-31T12:25:36.786Z,7.28
2019-01-31T12:26:36.709Z,7.14
2019-01-31T12:27:36.631Z,7.20
2019-01-31T12:28:36.552Z,7.15
2019-01-31T12:29:36.472Z,7.06
2019-01-31T12:30:36.399Z,7.18
2019-01-31T12:31:36.319Z,7.18
2019-01-31T12:32:36.239Z,7.31
2019-01-31T12:33:36.161Z,7.42
2019-01-31T12:34:36.088Z,7.54
2019-01-31T12:35:36.003Z,7.53
2019-01-31T12:36:35.927Z,7.54
2019-01-31T12:37:35.849Z,7.58
2019-01-31T12:38:37.064Z,7.60
2019-01-31T12:39:35.691Z,7.61
2019-01-31T12:40:35.614Z,7.58
2019-01-31T12:41:35.536Z,7.66
2019-01-31T12:42:35.456Z,7.75
2019-01-31T12:43:35.624Z,7.83
2019-01-31T12:44:35.299Z,7.83
2019-01-31T12:45:35.223Z,7.82
2019-01-31T12:46:35.148Z,7.80
2019-01-31T12:47:35.067Z,7.83
2019-01-31T12:48:34.983Z,7.94
2019-01-31T12:49:34.907Z,8.01
2019-01-31T12:50:34.827Z,8.08
2019-01-31T12:51:34.752Z,8.18
2019-01-31T12:52:34.672Z,8.15
2019-01-31T12:53:34.591Z,8.16
2019-01-31T12:54:34.514Z,8.15
2019-01-31T12:55:34.451Z,8.18
2019-01-31T12:56:34.365Z,8.24
2019-01-31T12:57:34.278Z,8.12
2019-01-31T12:58:34.194Z,8.24
2019-01-31T12:59:34.113Z,8.23
2019-01-31T13:00:34.041Z,8.24
2019-01-31T13:01:33.955Z,8.24
2019-01-31T13:02:33.877Z,8.24
2019-01-31T13:03:33.797Z,8.27
2019-01-31T13:04:33.716Z,8.26
2019-01-31T13:05:33.640Z,8.30
2019-01-31T13:06:33.557Z,8.36
2019-01-31T13:07:33.477Z,8.28
2019-01-31T13:08:33.396Z,8.31
2019-01-31T13:09:33.319Z,8.36